createdAt,value
2017-09-29T00:00:54.535Z,0
2017-09-29T00:01:57.000Z,0
2017-09-29T00:02:59.372Z,0
2017-09-29T00:04:01.788Z,0
2017-09-29T00:05:04.169Z,0
2017-09-29T00:06:06.553Z,0
2017-09-29T00:07:08.957Z,0
2017-09-29T00:08:11.372Z,0
2017-09-29T00:09:14.209Z,0
2017-09-29T00:10:16.591Z,0
2017-09-29T00:11:19.106Z,0
2017-09-29T00:12:21.549Z,0
2017-09-29T00:13:23.927Z,0
2017-09-29T00:14:26.350Z,0
2017-09-29T00:15:28.731Z,0
2017-09-29T00:16:31.192Z,0
2017-09-29T00:17:33.620Z,0
2017-09-29T00:18:36.004Z,0
2017-09-29T00:19:38.378Z,0
2017-09-29T00:20:40.761Z,0
2017-09-29T00:21:43.194Z,0
2017-09-29T00:22:45.631Z,0
2017-09-29T00:23:48.338Z,0
2017-09-29T00:24:50.722Z,0
2017-09-29T00:25:53.189Z,0
2017-09-29T00:26:55.558Z,0
2017-09-29T00:27:58.015Z,0
2017-09-29T00:29:00.391Z,0
2017-09-29T00:30:02.770Z,0
2017-09-29T00:31:05.226Z,0
2017-09-29T00:32:07.609Z,0
2017-09-29T00:33:10.031Z,0
2017-09-29T00:34:12.754Z,0
2017-09-29T00:35:15.636Z,0
2017-09-29T00:36:18.013Z,0
2017-09-29T00:37:20.482Z,0
2017-09-29T00:38:22.856Z,0
2017-09-29T00:39:25.306Z,0
2017-09-29T00:40:27.722Z,0
2017-09-29T00:41:30.096Z,0
2017-09-29T00:42:32.649Z,0
2017-09-29T00:43:35.023Z,0
2017-09-29T00:44:37.473Z,0
2017-09-29T00:45:39.851Z,0
2017-09-29T00:46:42.454Z,0
2017-09-29T00:47:45.210Z,0
2017-09-29T00:48:47.654Z,0
2017-09-29T00:49:50.030Z,0
2017-09-29T00:50:52.479Z,0
2017-09-29T00:51:54.856Z,0
2017-09-29T00:52:57.327Z,0
2017-09-29T00:53:59.706Z,0
2017-09-29T00:55:02.085Z,0
2017-09-29T00:56:04.470Z,0
2017-09-29T00:57:06.856Z,0
2017-09-29T00:58:09.228Z,0
2017-09-29T00:59:11.732Z,0
2017-09-29T01:00:14.113Z,0
2017-09-29T01:01:16.573Z,0
2017-09-29T01:02:18.954Z,0
2017-09-29T01:03:21.523Z,0
2017-09-29T01:04:23.898Z,0
2017-09-29T01:05:26.699Z,0
2017-09-29T01:06:29.068Z,0
2017-09-29T01:07:32.109Z,0
2017-09-29T01:08:34.490Z,0
2017-09-29T01:09:37.018Z,0
2017-09-29T01:10:39.400Z,0
2017-09-29T01:11:41.856Z,0
2017-09-29T01:12:44.577Z,0
2017-09-29T01:13:47.019Z,0
2017-09-29T01:14:49.404Z,0
2017-09-29T01:15:51.862Z,0
2017-09-29T01:16:54.236Z,0
2017-09-29T01:17:56.962Z,0
2017-09-29T01:18:59.347Z,0
2017-09-29T01:20:01.734Z,0
2017-09-29T01:21:04.104Z,0
2017-09-29T01:22:06.480Z,0
2017-09-29T01:23:08.866Z,0
2017-09-29T01:24:11.245Z,0
2017-09-29T01:25:13.656Z,0
2017-09-29T01:26:16.054Z,0
2017-09-29T01:27:18.436Z,0
2017-09-29T01:28:20.843Z,0
2017-09-29T01:29:23.245Z,0
2017-09-29T01:30:25.608Z,0
2017-09-29T01:31:28.013Z,0
2017-09-29T01:32:30.402Z,0
2017-09-29T01:33:32.776Z,0
2017-09-29T01:34:35.166Z,0
2017-09-29T01:35:37.549Z,0
2017-09-29T01:36:39.926Z,0
2017-09-29T01:37:42.326Z,0
2017-09-29T01:38:44.707Z,0
2017-09-29T01:39:47.079Z,0
2017-09-29T01:40:49.484Z,0
2017-09-29T01:41:51.900Z,0
2017-09-29T01:42:54.281Z,0
2017-09-29T01:43:56.659Z,0
2017-09-29T01:44:59.043Z,0
2017-09-29T01:46:01.516Z,0
2017-09-29T01:47:03.907Z,0
2017-09-29T01:48:06.323Z,0
2017-09-29T01:49:08.706Z,0
2017-09-29T01:50:11.093Z,0
2017-09-29T01:51:13.484Z,0
2017-09-29T01:52:15.861Z,0
2017-09-29T01:53:18.252Z,0
2017-09-29T01:54:20.985Z,0
2017-09-29T01:55:23.349Z,0
2017-09-29T01:56:25.739Z,0
2017-09-29T01:57:28.108Z,0
2017-09-29T01:58:30.496Z,0
2017-09-29T01:59:32.874Z,0
2017-09-29T02:00:35.263Z,0
2017-09-29T02:01:37.686Z,0
2017-09-29T02:02:40.078Z,0
2017-09-29T02:03:42.506Z,0
2017-09-29T02:04:44.938Z,0
2017-09-29T02:05:47.370Z,0
2017-09-29T02:06:49.803Z,0
2017-09-29T02:07:52.314Z,0
2017-09-29T02:08:54.737Z,0
2017-09-29T02:09:57.167Z,0
2017-09-29T02:10:59.575Z,0
2017-09-29T02:12:01.949Z,0
2017-09-29T02:13:04.327Z,0
2017-09-29T02:14:06.703Z,0
2017-09-29T02:15:09.085Z,0
2017-09-29T02:16:11.821Z,0
2017-09-29T02:17:14.200Z,0
2017-09-29T02:18:16.937Z,0
2017-09-29T02:19:19.329Z,0
2017-09-29T02:20:22.062Z,0
2017-09-29T02:21:24.436Z,0
2017-09-29T02:22:26.814Z,0
2017-09-29T02:23:29.195Z,0
2017-09-29T02:24:31.566Z,0
2017-09-29T02:25:33.960Z,0
2017-09-29T02:26:36.347Z,0
2017-09-29T02:27:38.711Z,0
2017-09-29T02:28:41.103Z,0
2017-09-29T02:29:43.480Z,0
2017-09-29T02:30:45.863Z,0
2017-09-29T02:31:48.576Z,0
2017-09-29T02:32:50.967Z,0
2017-09-29T02:33:53.702Z,0
2017-09-29T02:34:56.115Z,0
2017-09-29T02:35:58.529Z,0
2017-09-29T02:37:00.915Z,0
2017-09-29T02:38:03.653Z,0
2017-09-29T02:39:06.033Z,0
2017-09-29T02:40:08.412Z,0
2017-09-29T02:41:10.792Z,0
2017-09-29T02:42:13.167Z,0
2017-09-29T02:43:15.555Z,0
2017-09-29T02:44:17.933Z,0
2017-09-29T02:45:20.323Z,0
2017-09-29T02:46:23.066Z,0
2017-09-29T02:47:25.449Z,0
2017-09-29T02:48:27.845Z,0
2017-09-29T02:49:30.220Z,0
2017-09-29T02:50:33.313Z,0
2017-09-29T02:51:35.729Z,0
2017-09-29T02:52:38.110Z,0
2017-09-29T02:53:40.498Z,0
2017-09-29T02:54:42.873Z,0
2017-09-29T02:55:45.272Z,0
2017-09-29T02:56:47.653Z,0
2017-09-29T02:57:50.382Z,0
2017-09-29T02:58:52.791Z,0
2017-09-29T02:59:55.168Z,0
2017-09-29T03:00:57.552Z,0
2017-09-29T03:01:59.936Z,0
2017-09-29T03:03:02.329Z,0
2017-09-29T03:04:04.710Z,0
2017-09-29T03:05:07.093Z,0
2017-09-29T03:06:09.832Z,0
2017-09-29T03:07:12.218Z,0
2017-09-29T03:08:14.613Z,0
2017-09-29T03:09:17.016Z,0
2017-09-29T03:10:19.404Z,0
2017-09-29T03:11:22.168Z,0
2017-09-29T03:12:24.536Z,0
2017-09-29T03:13:26.930Z,0
2017-09-29T03:14:29.312Z,0
2017-09-29T03:15:31.699Z,0
2017-09-29T03:16:34.098Z,0
2017-09-29T03:17:36.481Z,0
2017-09-29T03:18:38.902Z,0
2017-09-29T03:19:41.294Z,0
2017-09-29T03:20:43.667Z,0
2017-09-29T03:21:46.051Z,0
2017-09-29T03:22:48.425Z,0
2017-09-29T03:23:50.820Z,0
2017-09-29T03:24:53.199Z,0
2017-09-29T03:25:55.578Z,0
2017-09-29T03:26:57.951Z,0
2017-09-29T03:28:00.344Z,0
2017-09-29T03:29:02.725Z,0
2017-09-29T03:30:05.188Z,0
2017-09-29T03:31:07.575Z,0
2017-09-29T03:32:09.963Z,0
2017-09-29T03:33:12.355Z,0
2017-09-29T03:34:14.743Z,0
2017-09-29T03:35:17.195Z,0
2017-09-29T03:36:19.580Z,0
2017-09-29T03:38:13.328Z,0
2017-09-29T03:39:15.767Z,0
2017-09-29T03:40:18.199Z,0
2017-09-29T03:41:20.637Z,0
2017-09-29T03:42:23.085Z,0
2017-09-29T03:43:25.525Z,0
2017-09-29T03:44:27.986Z,0
2017-09-29T03:45:30.411Z,0
2017-09-29T03:46:32.852Z,0
2017-09-29T03:47:35.285Z,0
2017-09-29T03:48:37.725Z,0
2017-09-29T03:49:40.156Z,0
2017-09-29T03:50:42.589Z,0
2017-09-29T03:51:45.039Z,0
2017-09-29T03:52:47.468Z,0
2017-09-29T03:53:49.896Z,0
2017-09-29T03:54:52.330Z,0
2017-09-29T03:55:54.764Z,0
2017-09-29T03:56:57.192Z,0
2017-09-29T03:57:59.632Z,0
2017-09-29T03:59:02.067Z,0
2017-09-29T04:00:04.503Z,0
2017-09-29T04:01:06.941Z,0
2017-09-29T04:02:09.367Z,0
2017-09-29T04:03:11.812Z,0
2017-09-29T04:04:14.244Z,0
2017-09-29T04:05:16.676Z,0
2017-09-29T04:06:19.110Z,0
2017-09-29T04:07:21.539Z,0
2017-09-29T04:08:23.973Z,0
2017-09-29T04:09:26.409Z,0
2017-09-29T04:10:28.840Z,0
2017-09-29T04:11:31.606Z,0
2017-09-29T04:12:34.037Z,0
2017-09-29T04:13:36.472Z,0
2017-09-29T04:14:38.906Z,0
2017-09-29T04:15:41.335Z,0
2017-09-29T04:16:43.774Z,0
2017-09-29T04:17:46.205Z,0
2017-09-29T04:18:48.648Z,0
2017-09-29T04:19:51.075Z,0
2017-09-29T04:20:53.862Z,0
2017-09-29T04:21:56.290Z,0
2017-09-29T04:22:58.728Z,0
2017-09-29T04:24:01.148Z,0
2017-09-29T04:25:03.583Z,0
2017-09-29T04:26:06.019Z,0
2017-09-29T04:27:08.435Z,0
2017-09-29T04:28:10.874Z,0
2017-09-29T04:29:13.309Z,0
2017-09-29T04:30:15.750Z,0
2017-09-29T04:31:18.177Z,0
2017-09-29T04:32:20.620Z,0
2017-09-29T04:33:23.048Z,0
2017-09-29T04:34:25.484Z,0
2017-09-29T04:35:27.917Z,0
2017-09-29T04:36:30.343Z,0
2017-09-29T04:37:32.785Z,0
2017-09-29T04:38:35.563Z,0
2017-09-29T04:39:37.986Z,0
2017-09-29T04:40:40.457Z,0
2017-09-29T04:41:42.855Z,0
2017-09-29T04:42:45.314Z,0
2017-09-29T04:43:47.747Z,0
2017-09-29T04:44:50.526Z,0
2017-09-29T04:45:52.962Z,0
2017-09-29T04:46:55.408Z,0
2017-09-29T04:47:57.841Z,0
2017-09-29T04:49:00.271Z,0
2017-09-29T04:50:02.699Z,0
2017-09-29T04:51:05.144Z,0
2017-09-29T04:52:07.574Z,0
2017-09-29T04:53:10.014Z,0
2017-09-29T04:54:12.446Z,0
2017-09-29T04:55:14.887Z,0
2017-09-29T04:56:17.652Z,0
2017-09-29T04:57:20.088Z,0
2017-09-29T04:58:22.518Z,0
2017-09-29T04:59:24.949Z,0
2017-09-29T05:00:27.400Z,0
2017-09-29T05:01:30.160Z,0
2017-09-29T05:02:32.650Z,0
2017-09-29T05:03:35.074Z,0
2017-09-29T05:04:37.511Z,0
2017-09-29T05:05:39.945Z,0
2017-09-29T05:06:42.376Z,1
2017-09-29T05:07:44.803Z,1
2017-09-29T05:08:47.248Z,1
2017-09-29T05:09:49.681Z,1
2017-09-29T05:10:52.110Z,1
2017-09-29T05:11:54.548Z,1
2017-09-29T05:12:56.981Z,1
2017-09-29T05:13:59.419Z,2
2017-09-29T05:15:01.853Z,2
2017-09-29T05:16:04.280Z,2
2017-09-29T05:17:06.713Z,2
2017-09-29T05:18:09.149Z,2
2017-09-29T05:19:11.577Z,3
2017-09-29T05:20:14.006Z,3
2017-09-29T05:21:16.432Z,3
2017-09-29T05:22:18.874Z,3
2017-09-29T05:23:21.314Z,4
2017-09-29T05:24:23.739Z,4
2017-09-29T05:25:26.175Z,4
2017-09-29T05:26:28.620Z,4
2017-09-29T05:27:31.054Z,5
2017-09-29T05:28:33.488Z,5
2017-09-29T05:29:35.930Z,5
2017-09-29T05:30:38.366Z,5
2017-09-29T05:31:40.806Z,6
2017-09-29T05:32:43.238Z,6
2017-09-29T05:33:46.000Z,6
2017-09-29T05:34:48.435Z,6
2017-09-29T05:35:50.868Z,7
2017-09-29T05:36:53.306Z,7
2017-09-29T05:37:55.728Z,7
2017-09-29T05:38:58.178Z,7
2017-09-29T05:40:00.606Z,8
2017-09-29T05:41:03.049Z,8
2017-09-29T05:42:05.487Z,9
2017-09-29T05:43:07.914Z,10
2017-09-29T05:44:10.355Z,10
2017-09-29T05:45:13.133Z,11
2017-09-29T05:46:15.554Z,11
2017-09-29T05:47:17.996Z,12
2017-09-29T05:48:20.444Z,12
2017-09-29T05:49:23.558Z,13
2017-09-29T05:50:25.999Z,14
2017-09-29T05:51:28.430Z,15
2017-09-29T05:52:30.870Z,15
2017-09-29T05:53:33.307Z,16
2017-09-29T05:54:35.762Z,16
2017-09-29T05:55:38.193Z,16
2017-09-29T05:56:40.634Z,17
2017-09-29T05:57:43.064Z,18
2017-09-29T05:58:45.504Z,19
2017-09-29T05:59:47.927Z,20
2017-09-29T06:00:50.362Z,20
2017-09-29T06:01:53.153Z,20
2017-09-29T06:02:55.577Z,21
2017-09-29T06:03:58.017Z,22
2017-09-29T06:05:00.450Z,23
2017-09-29T06:06:03.231Z,24
2017-09-29T06:07:05.686Z,24
2017-09-29T06:08:08.107Z,25
2017-09-29T06:09:10.553Z,26
2017-09-29T06:10:12.981Z,27
2017-09-29T06:11:15.429Z,28
2017-09-29T06:12:18.194Z,29
2017-09-29T06:13:20.625Z,29
2017-09-29T06:14:23.064Z,30
2017-09-29T06:15:25.491Z,30
2017-09-29T06:16:27.930Z,31
2017-09-29T06:17:30.367Z,31
2017-09-29T06:18:32.807Z,31
2017-09-29T06:19:35.266Z,31
2017-09-29T06:20:37.704Z,31
2017-09-29T06:21:40.134Z,32
2017-09-29T06:22:42.584Z,32
2017-09-29T06:23:45.019Z,33
2017-09-29T06:24:47.464Z,34
2017-09-29T06:25:49.908Z,35
2017-09-29T06:26:52.331Z,36
2017-09-29T06:27:54.764Z,36
2017-09-29T06:28:57.195Z,37
2017-09-29T06:29:59.624Z,37
2017-09-29T06:31:02.432Z,38
2017-09-29T06:32:04.858Z,38
2017-09-29T06:33:07.305Z,39
2017-09-29T06:34:10.098Z,40
2017-09-29T06:35:12.898Z,41
2017-09-29T06:36:15.340Z,43
2017-09-29T06:37:17.784Z,45
2017-09-29T06:38:20.580Z,47
2017-09-29T06:39:23.022Z,50
2017-09-29T06:40:25.451Z,50
2017-09-29T06:41:28.245Z,52
2017-09-29T06:42:31.027Z,53
2017-09-29T06:43:33.814Z,54
2017-09-29T06:44:36.263Z,54
2017-09-29T06:45:38.703Z,55
2017-09-29T06:46:41.133Z,54
2017-09-29T06:47:43.576Z,54
2017-09-29T06:48:46.011Z,55
2017-09-29T06:49:48.439Z,56
2017-09-29T06:50:50.874Z,57
2017-09-29T06:51:53.307Z,57
2017-09-29T06:52:55.747Z,59
2017-09-29T06:53:58.189Z,61
2017-09-29T06:55:00.612Z,60
2017-09-29T06:56:03.040Z,60
2017-09-29T06:57:05.488Z,62
2017-09-29T06:58:07.916Z,63
2017-09-29T06:59:10.692Z,66
2017-09-29T07:00:13.132Z,68
2017-09-29T07:01:15.564Z,71
2017-09-29T07:02:17.996Z,75
2017-09-29T07:03:20.440Z,77
2017-09-29T07:04:22.861Z,76
2017-09-29T07:05:25.303Z,76
2017-09-29T07:06:27.748Z,77
2017-09-29T07:07:30.174Z,78
2017-09-29T07:08:32.608Z,74
2017-09-29T07:09:35.040Z,74
2017-09-29T07:10:37.474Z,76
2017-09-29T07:11:39.902Z,75
2017-09-29T07:12:42.336Z,72
2017-09-29T07:13:44.790Z,75
2017-09-29T07:14:47.206Z,80
2017-09-29T07:15:49.654Z,79
2017-09-29T07:16:52.086Z,81
2017-09-29T07:17:54.527Z,85
2017-09-29T07:18:56.960Z,89
2017-09-29T07:19:59.738Z,90
2017-09-29T07:21:02.167Z,111
2017-09-29T07:22:04.609Z,139
2017-09-29T07:23:07.386Z,145
2017-09-29T07:24:09.819Z,182
2017-09-29T07:25:12.251Z,181
2017-09-29T07:26:14.673Z,133
2017-09-29T07:27:17.106Z,135
2017-09-29T07:28:19.549Z,106
2017-09-29T07:29:21.975Z,98
2017-09-29T07:30:24.417Z,153
2017-09-29T07:31:26.854Z,155
2017-09-29T07:32:29.305Z,175
2017-09-29T07:33:32.077Z,94
2017-09-29T07:34:34.519Z,94
2017-09-29T07:35:36.939Z,98
2017-09-29T07:36:39.387Z,118
2017-09-29T07:37:41.827Z,108
2017-09-29T07:38:44.263Z,105
2017-09-29T07:39:46.690Z,120
2017-09-29T07:40:49.130Z,102
2017-09-29T07:41:51.567Z,107
2017-09-29T07:42:54.009Z,115
2017-09-29T07:43:56.440Z,128
2017-09-29T07:44:59.218Z,105
2017-09-29T07:46:01.648Z,115
2017-09-29T07:47:04.096Z,126
2017-09-29T07:48:06.525Z,116
2017-09-29T07:49:08.956Z,117
2017-09-29T07:50:11.397Z,117
2017-09-29T07:51:14.190Z,150
2017-09-29T07:52:16.622Z,195
2017-09-29T07:53:19.061Z,249
2017-09-29T07:54:21.493Z,216
2017-09-29T07:55:23.931Z,177
2017-09-29T07:56:26.374Z,118
2017-09-29T07:57:28.808Z,108
2017-09-29T07:58:31.238Z,104
2017-09-29T07:59:33.706Z,101
2017-09-29T08:00:36.107Z,103
2017-09-29T08:01:38.902Z,104
2017-09-29T08:02:41.332Z,108
2017-09-29T08:03:43.765Z,112
2017-09-29T08:04:46.225Z,119
2017-09-29T08:05:48.667Z,137
2017-09-29T08:06:51.108Z,124
2017-09-29T08:07:53.542Z,115
2017-09-29T08:08:55.978Z,113
2017-09-29T08:09:58.419Z,112
2017-09-29T08:11:00.839Z,119
2017-09-29T08:12:03.289Z,122
2017-09-29T08:13:05.722Z,119
2017-09-29T08:14:08.158Z,129
2017-09-29T08:15:10.594Z,120
2017-09-29T08:16:13.031Z,124
2017-09-29T08:17:15.473Z,128
2017-09-29T08:18:17.920Z,145
2017-09-29T08:19:20.358Z,140
2017-09-29T08:20:22.797Z,135
2017-09-29T08:21:25.242Z,132
2017-09-29T08:22:27.673Z,156
2017-09-29T08:23:30.109Z,147
2017-09-29T08:24:32.546Z,144
2017-09-29T08:25:34.981Z,167
2017-09-29T08:26:37.423Z,168
2017-09-29T08:27:39.855Z,168
2017-09-29T08:28:42.296Z,178
2017-09-29T08:29:44.728Z,182
2017-09-29T08:30:47.172Z,183
2017-09-29T08:31:49.605Z,186
2017-09-29T08:32:52.046Z,171
2017-09-29T08:33:54.476Z,171
2017-09-29T08:34:56.920Z,162
2017-09-29T08:35:59.353Z,159
2017-09-29T08:37:01.808Z,166
2017-09-29T08:38:04.241Z,195
2017-09-29T08:39:06.679Z,222
2017-09-29T08:40:09.114Z,281
2017-09-29T08:41:11.557Z,189
2017-09-29T08:42:13.994Z,177
2017-09-29T08:43:16.439Z,261
2017-09-29T08:44:18.873Z,289
2017-09-29T08:45:21.311Z,355
2017-09-29T08:46:24.095Z,186
2017-09-29T08:47:26.531Z,195
2017-09-29T08:48:29.336Z,355
2017-09-29T08:49:31.775Z,337
2017-09-29T08:50:34.218Z,242
2017-09-29T08:51:36.666Z,190
2017-09-29T08:52:39.106Z,170
2017-09-29T08:53:41.545Z,275
2017-09-29T08:54:43.987Z,199
2017-09-29T08:55:46.434Z,212
2017-09-29T08:56:49.569Z,265
2017-09-29T08:57:52.020Z,195
2017-09-29T08:58:54.445Z,223
2017-09-29T08:59:56.893Z,289
2017-09-29T09:00:59.345Z,336
2017-09-29T09:02:01.785Z,237
2017-09-29T09:03:04.230Z,357
2017-09-29T09:04:06.665Z,373
2017-09-29T09:05:09.114Z,377
2017-09-29T09:06:11.565Z,271
2017-09-29T09:07:14.012Z,305
2017-09-29T09:08:16.452Z,344
2017-09-29T09:09:18.895Z,304
2017-09-29T09:10:21.350Z,375
2017-09-29T09:11:23.794Z,293
2017-09-29T09:12:26.230Z,307
2017-09-29T09:13:28.676Z,451
2017-09-29T09:14:31.114Z,407
2017-09-29T09:15:33.550Z,358
2017-09-29T09:16:36.000Z,332
2017-09-29T09:17:38.426Z,382
2017-09-29T09:18:41.482Z,441
2017-09-29T09:19:44.342Z,404
2017-09-29T09:20:46.786Z,383
2017-09-29T09:21:49.234Z,408
2017-09-29T09:22:52.352Z,385
2017-09-29T09:23:55.127Z,374
2017-09-29T09:24:57.587Z,374
2017-09-29T09:26:00.028Z,271
2017-09-29T09:27:02.475Z,211
2017-09-29T09:28:04.917Z,279
2017-09-29T09:29:07.703Z,410
2017-09-29T09:30:10.155Z,381
2017-09-29T09:31:12.602Z,390
2017-09-29T09:32:15.045Z,448
2017-09-29T09:33:17.494Z,493
2017-09-29T09:34:19.948Z,418
2017-09-29T09:35:22.402Z,414
2017-09-29T09:36:24.839Z,421
2017-09-29T09:37:27.295Z,374
2017-09-29T09:38:29.742Z,414
2017-09-29T09:39:32.188Z,465
2017-09-29T09:40:34.632Z,468
2017-09-29T09:41:37.093Z,457
2017-09-29T09:42:39.527Z,370
2017-09-29T09:43:41.999Z,453
2017-09-29T09:44:44.449Z,453
2017-09-29T09:45:46.901Z,464
2017-09-29T09:46:49.343Z,384
2017-09-29T09:47:51.798Z,384
2017-09-29T09:48:54.246Z,377
2017-09-29T09:49:56.693Z,404
2017-09-29T09:50:59.131Z,424
2017-09-29T09:52:01.580Z,334
2017-09-29T09:53:04.369Z,409
2017-09-29T09:54:06.823Z,415
2017-09-29T09:55:09.264Z,389
2017-09-29T09:56:11.716Z,439
2017-09-29T09:57:14.157Z,458
2017-09-29T09:58:16.619Z,418
2017-09-29T09:59:19.054Z,422
2017-09-29T10:00:21.505Z,417
2017-09-29T10:01:23.954Z,444
2017-09-29T10:02:26.407Z,403
2017-09-29T10:03:28.863Z,413
2017-09-29T10:04:31.653Z,387
2017-09-29T10:05:34.101Z,418
2017-09-29T10:06:36.546Z,414
2017-09-29T10:07:38.987Z,400
2017-09-29T10:08:41.443Z,406
2017-09-29T10:09:43.896Z,389
2017-09-29T10:10:46.343Z,432
2017-09-29T10:11:48.799Z,409
2017-09-29T10:12:51.250Z,369
2017-09-29T10:13:54.027Z,366
2017-09-29T10:14:56.482Z,389
2017-09-29T10:15:58.925Z,384
2017-09-29T10:17:01.367Z,405
2017-09-29T10:18:03.813Z,419
2017-09-29T10:19:06.252Z,391
2017-09-29T10:20:08.703Z,388
2017-09-29T10:21:11.157Z,399
2017-09-29T10:22:13.589Z,383
2017-09-29T10:23:16.048Z,512
2017-09-29T10:24:18.506Z,424
2017-09-29T10:25:20.948Z,406
2017-09-29T10:26:23.739Z,452
2017-09-29T10:27:26.187Z,456
2017-09-29T10:28:28.630Z,412
2017-09-29T10:29:31.095Z,407
2017-09-29T10:30:33.540Z,423
2017-09-29T10:31:35.986Z,451
2017-09-29T10:32:38.432Z,505
2017-09-29T10:33:40.889Z,464
2017-09-29T10:34:43.691Z,417
2017-09-29T10:35:46.138Z,492
2017-09-29T10:36:48.593Z,424
2017-09-29T10:37:51.042Z,349
2017-09-29T10:38:53.493Z,352
2017-09-29T10:39:55.947Z,424
2017-09-29T10:40:58.386Z,365
2017-09-29T10:42:00.841Z,315
2017-09-29T10:43:03.303Z,328
2017-09-29T10:44:05.747Z,320
2017-09-29T10:45:08.194Z,358
2017-09-29T10:46:10.639Z,416
2017-09-29T10:47:13.096Z,371
2017-09-29T10:48:15.545Z,382
2017-09-29T10:49:17.995Z,386
2017-09-29T10:50:20.776Z,377
2017-09-29T10:51:23.228Z,401
2017-09-29T10:52:25.683Z,415
2017-09-29T10:53:28.136Z,418
2017-09-29T10:54:30.922Z,402
2017-09-29T10:55:33.379Z,401
2017-09-29T10:56:35.821Z,377
2017-09-29T10:57:38.282Z,353
2017-09-29T10:58:41.073Z,373
2017-09-29T10:59:43.524Z,416
2017-09-29T11:00:46.318Z,409
2017-09-29T11:01:48.779Z,391
2017-09-29T11:02:51.226Z,393
2017-09-29T11:03:53.679Z,381
2017-09-29T11:04:56.128Z,355
2017-09-29T11:05:58.581Z,373
2017-09-29T11:07:01.032Z,376
2017-09-29T11:08:03.483Z,399
2017-09-29T11:09:05.961Z,418
2017-09-29T11:10:08.381Z,372
2017-09-29T11:11:10.832Z,348
2017-09-29T11:12:13.275Z,366
2017-09-29T11:13:15.733Z,396
2017-09-29T11:14:18.180Z,417
2017-09-29T11:15:20.632Z,406
2017-09-29T11:16:23.097Z,393
2017-09-29T11:17:25.546Z,436
2017-09-29T11:18:27.998Z,418
2017-09-29T11:19:30.445Z,394
2017-09-29T11:20:32.887Z,454
2017-09-29T11:21:35.390Z,454
2017-09-29T11:22:37.862Z,415
2017-09-29T11:23:40.315Z,518
2017-09-29T11:24:42.773Z,468
2017-09-29T11:25:45.238Z,463
2017-09-29T11:26:47.708Z,431
2017-09-29T11:27:50.165Z,440
2017-09-29T11:28:52.613Z,424
2017-09-29T11:29:55.059Z,450
2017-09-29T11:30:57.525Z,491
2017-09-29T11:31:59.972Z,453
2017-09-29T11:33:02.414Z,442
2017-09-29T11:34:04.885Z,433
2017-09-29T11:35:07.339Z,401
2017-09-29T11:36:10.496Z,393
2017-09-29T11:37:12.939Z,372
2017-09-29T11:38:15.409Z,417
2017-09-29T11:39:17.855Z,427
2017-09-29T11:40:20.299Z,412
2017-09-29T11:41:22.750Z,392
2017-09-29T11:42:25.196Z,395
2017-09-29T11:43:27.654Z,356
2017-09-29T11:44:30.448Z,360
2017-09-29T11:47:40.837Z,375
2017-09-29T11:48:43.300Z,360
2017-09-29T11:49:45.748Z,390
2017-09-29T11:50:48.215Z,377
2017-09-29T11:51:50.665Z,415
2017-09-29T11:52:53.117Z,387
2017-09-29T11:53:55.567Z,339
2017-09-29T11:54:58.022Z,382
2017-09-29T11:56:00.466Z,423
2017-09-29T11:57:03.279Z,391
2017-09-29T11:58:05.715Z,380
2017-09-29T11:59:08.167Z,392
2017-09-29T12:00:10.950Z,414
2017-09-29T12:01:13.407Z,423
2017-09-29T12:02:15.852Z,423
2017-09-29T12:03:18.307Z,380
2017-09-29T12:04:21.108Z,387
2017-09-29T12:05:23.888Z,390
2017-09-29T12:06:26.345Z,351
2017-09-29T12:07:28.793Z,330
2017-09-29T12:08:31.247Z,350
2017-09-29T12:09:33.694Z,369
2017-09-29T12:10:36.149Z,430
2017-09-29T12:11:38.594Z,381
2017-09-29T12:12:41.060Z,344
2017-09-29T12:13:43.508Z,376
2017-09-29T12:14:45.976Z,360
2017-09-29T12:15:49.132Z,348
2017-09-29T12:16:51.598Z,406
2017-09-29T12:17:54.056Z,380
2017-09-29T12:18:56.515Z,333
2017-09-29T12:19:58.968Z,349
2017-09-29T12:21:01.426Z,352
2017-09-29T12:22:03.886Z,329
2017-09-29T12:23:06.333Z,337
2017-09-29T12:24:08.781Z,334
2017-09-29T12:25:11.231Z,364
2017-09-29T12:26:13.685Z,367
2017-09-29T12:27:16.133Z,360
2017-09-29T12:28:18.934Z,325
2017-09-29T12:29:21.384Z,317
2017-09-29T12:30:23.845Z,345
2017-09-29T12:31:26.305Z,332
2017-09-29T12:32:28.761Z,326
2017-09-29T12:33:31.217Z,290
2017-09-29T12:34:33.670Z,266
2017-09-29T12:35:36.131Z,296
2017-09-29T12:36:38.566Z,304
2017-09-29T12:37:41.024Z,301
2017-09-29T12:38:43.485Z,313
2017-09-29T12:39:45.933Z,333
2017-09-29T12:40:48.760Z,339
2017-09-29T12:41:51.216Z,327
2017-09-29T12:42:54.010Z,339
2017-09-29T12:43:56.473Z,329
2017-09-29T12:44:58.927Z,321
2017-09-29T12:46:01.366Z,314
2017-09-29T12:47:03.826Z,316
2017-09-29T12:48:06.276Z,292
2017-09-29T12:49:08.726Z,302
2017-09-29T12:50:11.189Z,272
2017-09-29T12:51:13.635Z,263
2017-09-29T12:52:16.088Z,278
2017-09-29T12:53:18.565Z,264
2017-09-29T12:54:20.994Z,268
2017-09-29T12:55:23.454Z,268
2017-09-29T12:56:25.905Z,292
2017-09-29T12:57:28.350Z,321
2017-09-29T12:58:30.808Z,341
2017-09-29T12:59:33.259Z,256
2017-09-29T13:00:35.714Z,267
2017-09-29T13:01:38.158Z,280
2017-09-29T13:02:40.612Z,264
2017-09-29T13:03:43.063Z,291
2017-09-29T13:04:45.513Z,221
2017-09-29T13:05:47.966Z,248
2017-09-29T13:06:50.415Z,274
2017-09-29T13:07:52.869Z,230
2017-09-29T13:08:55.420Z,226
2017-09-29T13:09:57.765Z,232
2017-09-29T13:11:00.224Z,237
2017-09-29T13:12:02.664Z,224
2017-09-29T13:13:05.118Z,224
2017-09-29T13:14:07.563Z,198
2017-09-29T13:15:10.017Z,224
2017-09-29T13:16:12.460Z,239
2017-09-29T13:17:14.917Z,208
2017-09-29T13:18:17.358Z,220
2017-09-29T13:19:19.812Z,198
2017-09-29T13:20:22.602Z,247
2017-09-29T13:21:25.051Z,210
2017-09-29T13:22:27.504Z,202
2017-09-29T13:23:29.957Z,218
2017-09-29T13:24:32.413Z,231
2017-09-29T13:25:34.859Z,186
2017-09-29T13:26:37.311Z,207
2017-09-29T13:27:39.765Z,203
2017-09-29T13:28:42.213Z,182
2017-09-29T13:29:44.672Z,177
2017-09-29T13:30:47.113Z,170
2017-09-29T13:31:49.566Z,180
2017-09-29T13:32:52.021Z,163
2017-09-29T13:33:54.468Z,167
2017-09-29T13:34:56.916Z,155
2017-09-29T13:35:59.378Z,157
2017-09-29T13:37:02.192Z,167
2017-09-29T13:38:04.644Z,162
2017-09-29T13:39:07.100Z,161
2017-09-29T13:40:09.559Z,157
2017-09-29T13:41:12.006Z,156
2017-09-29T13:42:14.469Z,150
2017-09-29T13:43:16.911Z,142
2017-09-29T13:44:19.369Z,137
2017-09-29T13:45:21.831Z,143
2017-09-29T13:46:24.949Z,141
2017-09-29T13:47:27.407Z,134
2017-09-29T13:48:29.853Z,141
2017-09-29T13:49:32.993Z,130
2017-09-29T13:50:35.434Z,123
2017-09-29T13:51:37.890Z,122
2017-09-29T13:52:40.336Z,128
2017-09-29T13:53:42.791Z,161
2017-09-29T13:54:45.255Z,156
2017-09-29T13:55:47.701Z,140
2017-09-29T13:56:50.155Z,206
2017-09-29T13:57:52.951Z,146
2017-09-29T13:58:55.401Z,130
2017-09-29T13:59:57.854Z,134
2017-09-29T14:01:00.305Z,125
2017-09-29T14:02:02.748Z,129
2017-09-29T14:03:05.905Z,142
2017-09-29T14:04:08.390Z,115
2017-09-29T14:05:10.841Z,130
2017-09-29T14:06:13.284Z,138
2017-09-29T14:07:15.745Z,110
2017-09-29T14:08:18.198Z,120
2017-09-29T14:09:20.682Z,123
2017-09-29T14:10:23.257Z,127
2017-09-29T14:11:25.703Z,134
2017-09-29T14:12:28.169Z,126
2017-09-29T14:13:30.652Z,123
2017-09-29T14:14:33.119Z,115
2017-09-29T14:15:35.574Z,101
2017-09-29T14:16:38.065Z,105
2017-09-29T14:17:40.548Z,111
2017-09-29T14:18:43.046Z,100
2017-09-29T14:19:45.502Z,133
2017-09-29T14:20:47.963Z,123
2017-09-29T14:21:50.422Z,140
2017-09-29T14:22:53.219Z,136
2017-09-29T14:23:55.673Z,110
2017-09-29T14:24:58.156Z,136
2017-09-29T14:26:00.646Z,142
2017-09-29T14:27:03.464Z,115
2017-09-29T14:28:05.923Z,107
2017-09-29T14:29:08.380Z,122
2017-09-29T14:30:10.823Z,113
2017-09-29T14:31:13.280Z,128
2017-09-29T14:32:15.732Z,115
2017-09-29T14:33:18.177Z,111
2017-09-29T14:34:20.627Z,124
2017-09-29T14:35:23.091Z,127
2017-09-29T14:36:25.541Z,113
2017-09-29T14:37:28.346Z,100
2017-09-29T14:38:31.265Z,103
2017-09-29T14:39:34.022Z,103
2017-09-29T14:40:36.578Z,105
2017-09-29T14:41:39.303Z,105
2017-09-29T14:42:42.352Z,87
2017-09-29T14:43:44.973Z,75
2017-09-29T14:44:47.637Z,66
2017-09-29T14:45:50.620Z,61
2017-09-29T14:46:56.201Z,58
2017-09-29T14:47:58.706Z,60
2017-09-29T14:49:01.149Z,64
2017-09-29T14:50:03.597Z,66
2017-09-29T14:51:06.048Z,66